createdAt,value
2022-09-07T00:00:43.267Z,10.98
2022-09-07T00:03:13.929Z,11.15
2022-09-07T00:08:24.459Z,11.35
2022-09-07T00:10:56.716Z,10.85
2022-09-07T00:13:29.779Z,10.18
2022-09-07T00:16:00.780Z,10.15
2022-09-07T00:18:31.552Z,11.60
2022-09-07T00:21:07.990Z,11.20
2022-09-07T00:23:40.200Z,9.65
2022-09-07T00:26:13.988Z,9.73
2022-09-07T00:28:44.483Z,10.45
2022-09-07T00:31:17.471Z,11.57
2022-09-07T00:33:49.231Z,11.15
2022-09-07T00:36:23.893Z,11.55
2022-09-07T00:38:54.686Z,13.43
2022-09-07T00:43:58.436Z,12.40
2022-09-07T00:46:32.119Z,14.55
2022-09-07T00:49:08.217Z,13.63
2022-09-07T00:51:46.389Z,13.82
2022-09-07T00:54:21.308Z,9.82
2022-09-07T00:56:54.711Z,11.85
2022-09-07T00:59:29.916Z,11.15
2022-09-07T01:02:00.398Z,10.70
2022-09-07T01:04:33.065Z,10.15
2022-09-07T01:07:06.738Z,10.25
2022-09-07T01:09:37.522Z,10.50
2022-09-07T01:14:42.279Z,12.73
2022-09-07T01:17:20.268Z,10.57
2022-09-07T01:20:59.332Z,11.60
2022-09-07T01:24:29.938Z,9.63
2022-09-07T01:27:43.322Z,11.10
2022-09-07T01:30:16.594Z,11.20
2022-09-07T01:33:02.712Z,11.68
2022-09-07T01:35:43.901Z,10.68
2022-09-07T01:38:21.736Z,9.95
2022-09-07T01:41:01.030Z,9.13
2022-09-07T01:43:46.824Z,10.90
2022-09-07T01:46:23.765Z,13.82
2022-09-07T01:48:56.247Z,11.43
2022-09-07T01:51:33.877Z,9.57
2022-09-07T01:54:14.090Z,9.60
2022-09-07T01:56:48.310Z,11.52
2022-09-07T01:59:27.819Z,10.20
2022-09-07T02:02:05.130Z,9.48
2022-09-07T02:04:40.639Z,9.05
2022-09-07T02:07:20.621Z,11.90
2022-09-07T02:09:59.844Z,10.25
2022-09-07T02:12:38.609Z,7.57
2022-09-07T02:15:17.551Z,9.75
2022-09-07T02:17:52.803Z,10.48
2022-09-07T02:20:31.299Z,10.63
2022-09-07T02:23:05.991Z,8.85
2022-09-07T02:25:40.703Z,7.65
2022-09-07T02:28:14.607Z,8.30
2022-09-07T02:30:47.717Z,7.30
2022-09-07T02:33:18.191Z,9.38
2022-09-07T02:35:48.939Z,8.02
2022-09-07T02:40:54.995Z,8.85
2022-09-07T02:43:26.958Z,12.50
2022-09-07T02:46:22.216Z,8.73
2022-09-07T02:49:06.618Z,10.90
2022-09-07T02:51:47.708Z,8.38
2022-09-07T02:54:32.425Z,9.48
2022-09-07T02:57:13.629Z,10.30
2022-09-07T02:59:57.117Z,7.85
2022-09-07T03:02:38.539Z,7.90
2022-09-07T03:05:20.929Z,8.55
2022-09-07T03:07:58.821Z,7.47
2022-09-07T03:10:30.398Z,10.60
2022-09-07T03:13:00.736Z,11.25
2022-09-07T03:15:31.231Z,11.27
2022-09-07T03:18:04.118Z,13.15
2022-09-07T03:20:34.380Z,8.90
2022-09-07T03:23:04.557Z,8.80
2022-09-07T03:25:34.841Z,7.75
2022-09-07T03:28:05.635Z,11.55
2022-09-07T03:33:08.614Z,7.57
2022-09-07T03:35:38.946Z,8.30
2022-09-07T03:38:09.081Z,8.75
2022-09-07T03:40:39.346Z,10.13
2022-09-07T03:43:09.662Z,8.38
2022-09-07T03:45:39.932Z,7.93
2022-09-07T03:48:12.798Z,8.98
2022-09-07T03:50:42.962Z,11.77
2022-09-07T03:53:13.112Z,11.93
2022-09-07T03:55:43.342Z,9.73
2022-09-07T03:58:13.690Z,10.82
2022-09-07T04:00:44.375Z,10.55
2022-09-07T04:03:17.143Z,17.60
2022-09-07T04:05:47.487Z,11.05
2022-09-07T04:08:17.832Z,10.15
2022-09-07T04:10:48.150Z,11.57
2022-09-07T04:13:18.779Z,8.75
2022-09-07T04:15:53.301Z,8.63
2022-09-07T04:18:27.902Z,8.45
2022-09-07T04:21:01.970Z,10.13
2022-09-07T04:23:32.444Z,7.85
2022-09-07T04:26:02.677Z,12.80
2022-09-07T04:28:32.914Z,13.00
2022-09-07T04:31:04.752Z,13.20
2022-09-07T04:33:37.695Z,9.10
2022-09-07T04:36:08.587Z,11.82
2022-09-07T04:38:40.152Z,11.45
2022-09-07T04:41:13.103Z,7.53
2022-09-07T04:43:44.274Z,9.10
2022-09-07T04:46:21.930Z,8.13
2022-09-07T04:48:56.535Z,7.03
2022-09-07T04:51:29.452Z,8.05
2022-09-07T04:54:01.795Z,9.20
2022-09-07T04:56:33.217Z,10.05
2022-09-07T04:59:04.286Z,8.15
2022-09-07T05:01:34.891Z,9.32
2022-09-07T05:04:08.659Z,11.07
2022-09-07T05:06:39.020Z,8.30
2022-09-07T05:09:09.341Z,9.55
2022-09-07T05:11:39.769Z,9.65
2022-09-07T05:14:10.026Z,10.48
2022-09-07T05:16:40.294Z,9.35
2022-09-07T05:19:16.098Z,11.57
2022-09-07T05:21:46.312Z,7.88
2022-09-07T05:24:16.846Z,16.48
2022-09-07T05:26:47.158Z,15.57
2022-09-07T05:32:08.385Z,6.97
2022-09-07T05:34:41.144Z,8.88
2022-09-07T05:37:11.874Z,11.65
2022-09-07T05:42:12.098Z,9.50
2022-09-07T05:47:32.736Z,8.23
2022-09-07T05:50:05.532Z,11.95
2022-09-07T05:52:35.764Z,12.57
2022-09-07T05:55:28.664Z,9.70
2022-09-07T06:00:26.717Z,7.50
2022-09-07T06:02:56.921Z,10.20
2022-09-07T06:05:29.797Z,8.02
2022-09-07T06:08:00.070Z,8.45
2022-09-07T06:10:46.635Z,7.43
2022-09-07T06:13:16.875Z,7.35
2022-09-07T06:15:47.158Z,9.48
2022-09-07T06:18:17.428Z,7.72
2022-09-07T06:20:50.243Z,7.07
2022-09-07T06:23:20.468Z,10.25
2022-09-07T06:25:53.934Z,7.13
2022-09-07T06:28:30.559Z,6.85
2022-09-07T06:31:04.027Z,9.00
2022-09-07T06:33:34.962Z,12.15
2022-09-07T06:36:10.337Z,8.13
2022-09-07T06:38:41.910Z,7.40
2022-09-07T06:44:08.151Z,7.70
2022-09-07T06:49:29.168Z,8.30
2022-09-07T06:52:03.346Z,8.45
2022-09-07T06:57:23.837Z,7.65
2022-09-07T06:59:54.007Z,8.02
2022-09-07T07:02:24.235Z,7.80
2022-09-07T07:04:54.383Z,7.55
2022-09-07T07:07:27.229Z,6.85
2022-09-07T07:09:57.412Z,7.57
2022-09-07T07:14:56.714Z,8.68
2022-09-07T07:19:57.730Z,7.90
2022-09-07T07:22:46.219Z,8.60
2022-09-07T07:25:17.955Z,6.57
2022-09-07T07:27:48.987Z,8.38
2022-09-07T07:30:21.157Z,9.65
2022-09-07T07:32:51.860Z,9.68
2022-09-07T07:35:22.131Z,6.28
2022-09-07T07:43:36.237Z,5.70
2022-09-07T07:46:07.221Z,6.40
2022-09-07T07:48:38.765Z,6.78
2022-09-07T07:51:12.286Z,6.70
2022-09-07T07:53:46.166Z,28.42
2022-09-07T07:56:17.222Z,13.57
2022-09-07T07:58:49.352Z,10.10
2022-09-07T08:01:20.728Z,10.05
2022-09-07T08:03:51.000Z,9.75
2022-09-07T08:06:23.569Z,8.20
2022-09-07T08:08:56.365Z,6.07
2022-09-07T08:11:26.526Z,7.40
2022-09-07T08:14:00.292Z,5.85
2022-09-07T08:16:30.487Z,6.53
2022-09-07T08:19:01.232Z,7.00
2022-09-07T08:21:31.340Z,7.63
2022-09-07T08:24:04.247Z,7.93
2022-09-07T08:26:34.517Z,7.22
2022-09-07T08:29:04.609Z,9.90
2022-09-07T08:34:04.753Z,5.55
2022-09-07T08:36:34.798Z,7.00
2022-09-07T08:41:55.677Z,6.78
2022-09-07T08:44:31.422Z,13.35
2022-09-07T08:47:05.622Z,7.25
2022-09-07T08:49:47.319Z,23.48
2022-09-07T08:52:23.089Z,31.30
2022-09-07T08:55:14.627Z,11.07
2022-09-07T08:57:50.599Z,6.85
2022-09-07T09:00:22.618Z,9.13
2022-09-07T09:05:55.761Z,11.77
2022-09-07T09:08:43.789Z,6.10
2022-09-07T09:11:27.654Z,7.90
2022-09-07T09:14:05.357Z,9.65
2022-09-07T09:16:42.941Z,6.88
2022-09-07T09:19:39.604Z,7.85
2022-09-07T09:22:16.364Z,6.88
2022-09-07T09:24:51.320Z,6.72
2022-09-07T09:27:24.137Z,7.50
2022-09-07T09:29:54.278Z,11.23
2022-09-07T09:32:37.926Z,7.50
2022-09-07T09:35:17.512Z,6.53
2022-09-07T09:37:48.045Z,8.52
2022-09-07T09:40:25.616Z,5.18
2022-09-07T09:43:07.954Z,7.97
2022-09-07T09:48:36.778Z,7.38
2022-09-07T09:54:06.119Z,14.10
2022-09-07T09:56:44.951Z,7.97
2022-09-07T10:05:32.933Z,8.65
2022-09-07T10:08:03.755Z,9.85
2022-09-07T10:10:34.383Z,7.18
2022-09-07T10:13:04.557Z,5.47
2022-09-07T10:15:41.042Z,6.35
2022-09-07T10:18:22.278Z,7.47
2022-09-07T10:20:52.341Z,7.95
2022-09-07T10:23:26.090Z,7.20
2022-09-07T10:25:57.000Z,7.55
2022-09-07T10:29:06.525Z,6.68
2022-09-07T10:31:30.458Z,8.68
2022-09-07T10:37:08.544Z,6.70
2022-09-07T10:39:40.983Z,8.75
2022-09-07T10:42:29.398Z,7.05
2022-09-07T10:45:15.226Z,8.15
2022-09-07T10:48:01.193Z,5.32
2022-09-07T10:50:39.980Z,6.45
2022-09-07T10:53:44.639Z,12.03
2022-09-07T10:56:22.765Z,8.90
2022-09-07T10:59:06.300Z,7.75
2022-09-07T11:01:53.042Z,9.68
2022-09-07T11:04:49.312Z,8.20
2022-09-07T11:07:47.302Z,8.55
2022-09-07T11:10:30.344Z,11.45
2022-09-07T11:13:05.604Z,8.45
2022-09-07T11:15:39.872Z,8.30
2022-09-07T11:18:18.035Z,5.72
2022-09-07T11:20:55.680Z,8.70
2022-09-07T11:23:32.668Z,6.70
2022-09-07T11:26:12.038Z,13.75
2022-09-07T11:31:27.386Z,8.10
2022-09-07T11:37:06.234Z,10.57
2022-09-07T11:39:43.512Z,9.00
2022-09-07T11:45:20.085Z,7.38
2022-09-07T11:47:56.302Z,7.47
2022-09-07T11:50:27.831Z,10.85
2022-09-07T11:53:06.676Z,4.95
2022-09-07T11:55:41.272Z,7.30
2022-09-07T11:58:52.261Z,5.40
2022-09-07T12:01:36.974Z,10.25
2022-09-07T12:04:32.886Z,8.80
2022-09-07T12:07:34.720Z,5.80
2022-09-07T12:10:36.820Z,7.05
2022-09-07T12:13:44.307Z,7.90
2022-09-07T12:16:25.223Z,6.00
2022-09-07T12:19:20.695Z,5.80
2022-09-07T12:21:58.882Z,6.47
2022-09-07T12:24:54.145Z,6.55
2022-09-07T12:27:44.986Z,11.73
2022-09-07T12:31:04.539Z,8.15
2022-09-07T12:33:38.522Z,9.80
2022-09-07T12:36:52.356Z,5.00
2022-09-07T12:39:28.616Z,7.13
2022-09-07T12:42:32.887Z,9.02
2022-09-07T12:45:48.043Z,8.60
2022-09-07T12:48:43.641Z,5.88
2022-09-07T12:54:23.311Z,7.28
2022-09-07T13:00:08.464Z,7.78
2022-09-07T13:06:18.983Z,7.25
2022-09-07T13:09:18.402Z,7.22
2022-09-07T13:11:48.655Z,8.57
2022-09-07T13:14:27.286Z,6.32
2022-09-07T13:17:44.947Z,7.75
2022-09-07T13:20:30.266Z,5.88
2022-09-07T13:23:31.384Z,6.82
2022-09-07T13:26:03.620Z,4.72
2022-09-07T13:28:50.726Z,6.13
2022-09-07T13:31:42.216Z,6.40
2022-09-07T13:34:40.576Z,4.68
2022-09-07T13:37:20.031Z,4.97
2022-09-07T13:39:56.667Z,7.03
2022-09-07T13:42:30.868Z,6.72
2022-09-07T13:45:04.326Z,4.50
2022-09-07T13:47:51.218Z,8.07
2022-09-07T13:50:35.331Z,6.05
2022-09-07T13:53:46.670Z,5.00
2022-09-07T13:56:36.951Z,4.35
2022-09-07T13:59:21.645Z,4.97
2022-09-07T14:01:53.692Z,5.65
2022-09-07T14:04:28.821Z,5.30
2022-09-07T14:07:09.993Z,5.38
2022-09-07T14:09:40.058Z,3.45
2022-09-07T14:12:20.704Z,6.80
2022-09-07T14:15:10.751Z,5.43
2022-09-07T14:17:40.931Z,6.15
2022-09-07T14:20:17.090Z,7.40
2022-09-07T14:22:53.028Z,5.82
2022-09-07T14:25:26.057Z,5.18
2022-09-07T14:28:00.918Z,6.93
2022-09-07T14:30:34.064Z,5.38
2022-09-07T14:33:07.089Z,6.35
2022-09-07T14:35:40.945Z,6.30
2022-09-07T14:41:21.806Z,5.60
2022-09-07T14:44:00.214Z,5.13
2022-09-07T14:49:07.943Z,6.85
2022-09-07T14:51:38.410Z,5.03
2022-09-07T14:54:10.670Z,5.72
2022-09-07T14:56:43.777Z,6.38
2022-09-07T14:59:39.555Z,5.32
2022-09-07T15:02:37.751Z,6.68
2022-09-07T15:05:29.380Z,9.40
2022-09-07T15:08:01.647Z,7.28
2022-09-07T15:10:38.313Z,5.22
2022-09-07T15:13:26.051Z,4.63
2022-09-07T15:16:05.656Z,4.75
2022-09-07T15:18:54.694Z,5.57
2022-09-07T15:21:27.312Z,3.97
2022-09-07T15:23:59.709Z,5.53
2022-09-07T15:29:25.110Z,7.75
2022-09-07T15:32:03.923Z,4.03
2022-09-07T15:34:34.942Z,7.20
2022-09-07T15:38:00.945Z,7.18
2022-09-07T15:39:55.385Z,4.80
2022-09-07T15:45:16.224Z,6.53
2022-09-07T15:47:53.638Z,5.78
2022-09-07T15:50:24.384Z,3.90
2022-09-07T15:52:55.234Z,8.23
2022-09-07T15:55:25.440Z,5.28
2022-09-07T15:58:09.092Z,5.15
2022-09-07T16:00:42.128Z,7.50
2022-09-07T16:03:15.378Z,4.57
2022-09-07T16:05:46.406Z,5.20
2022-09-07T16:08:25.348Z,3.63
2022-09-07T16:11:04.682Z,7.93
2022-09-07T16:13:35.948Z,9.27
2022-09-07T16:18:46.595Z,6.00
2022-09-07T16:21:18.831Z,7.32
2022-09-07T16:23:53.043Z,11.68
2022-09-07T16:26:25.958Z,10.05
2022-09-07T16:28:56.843Z,16.90
2022-09-07T16:31:31.174Z,14.80
2022-09-07T16:34:04.991Z,14.73
2022-09-07T16:36:35.039Z,27.75
2022-09-07T16:39:05.146Z,28.95
2022-09-07T16:44:06.221Z,17.85
2022-09-07T16:46:36.934Z,21.30
2022-09-07T16:49:09.940Z,19.88
2022-09-07T16:51:40.794Z,20.08
2022-09-07T16:54:15.810Z,20.60
2022-09-07T16:56:46.036Z,21.02
2022-09-07T17:01:51.147Z,40.15
2022-09-07T17:04:23.958Z,33.72
2022-09-07T17:06:54.763Z,14.02
2022-09-07T17:09:26.866Z,17.60
2022-09-07T17:11:57.060Z,15.75
2022-09-07T17:14:28.356Z,17.27
2022-09-07T17:16:58.785Z,17.67
2022-09-07T17:19:31.754Z,15.75
2022-09-07T17:22:07.193Z,22.98
2022-09-07T17:24:39.669Z,23.58
2022-09-07T17:27:09.801Z,16.98
2022-09-07T17:29:40.499Z,17.17
2022-09-07T17:32:26.316Z,18.33
2022-09-07T17:35:00.580Z,13.25
2022-09-07T17:37:30.657Z,11.98
2022-09-07T17:40:01.268Z,9.50
2022-09-07T17:45:27.736Z,13.80
2022-09-07T17:47:58.142Z,12.10
2022-09-07T17:50:31.733Z,15.38
2022-09-07T17:53:02.130Z,13.18
2022-09-07T17:55:32.878Z,13.85
2022-09-07T17:58:04.725Z,14.45
2022-09-07T18:00:34.981Z,15.00
2022-09-07T18:03:05.570Z,17.38
2022-09-07T18:05:39.245Z,15.63
2022-09-07T18:08:10.895Z,15.23
2022-09-07T18:16:14.357Z,24.73
2022-09-07T18:18:44.766Z,14.50
2022-09-07T18:21:21.614Z,13.45
2022-09-07T18:23:56.299Z,14.00
2022-09-07T18:26:28.448Z,9.80
2022-09-07T18:29:18.933Z,10.13
2022-09-07T18:31:50.936Z,16.10
2022-09-07T18:34:21.444Z,13.10
2022-09-07T18:36:55.224Z,10.70
2022-09-07T18:39:26.332Z,14.30
2022-09-07T18:41:58.147Z,12.05
2022-09-07T18:47:28.062Z,15.18
2022-09-07T18:50:00.315Z,21.45
2022-09-07T18:55:24.355Z,13.30
2022-09-07T18:57:55.739Z,13.70
2022-09-07T19:00:26.296Z,12.98
2022-09-07T19:02:56.703Z,11.10
2022-09-07T19:08:22.027Z,12.27
2022-09-07T19:10:52.882Z,11.05
2022-09-07T19:13:23.235Z,16.38
2022-09-07T19:15:53.814Z,12.88
2022-09-07T19:18:24.434Z,12.15
2022-09-07T19:20:55.144Z,13.70
2022-09-07T19:23:29.259Z,12.25
2022-09-07T19:26:02.300Z,13.50
2022-09-07T19:28:33.152Z,14.32
2022-09-07T19:31:06.368Z,9.98
2022-09-07T19:33:38.076Z,14.43
2022-09-07T19:36:10.349Z,8.98
2022-09-07T19:38:43.630Z,11.20
2022-09-07T19:41:16.300Z,13.73
2022-09-07T19:43:49.172Z,11.18
2022-09-07T19:46:24.816Z,9.60
2022-09-07T19:48:55.808Z,12.27
2022-09-07T19:51:26.730Z,12.20
2022-09-07T19:54:00.084Z,10.80
2022-09-07T19:56:31.370Z,11.30
2022-09-07T19:59:01.869Z,11.25
2022-09-07T20:04:05.438Z,10.93
2022-09-07T20:06:37.637Z,12.77
2022-09-07T20:09:10.941Z,14.18
2022-09-07T20:11:46.010Z,11.70
2022-09-07T20:14:17.676Z,11.25
2022-09-07T20:16:48.249Z,12.45
2022-09-07T20:19:18.713Z,11.55
2022-09-07T20:21:49.139Z,11.13
2022-09-07T20:26:53.425Z,10.05
2022-09-07T20:32:00.619Z,13.18
2022-09-07T20:34:32.293Z,9.07
2022-09-07T20:37:02.790Z,14.38
2022-09-07T20:42:10.810Z,9.75
2022-09-07T20:44:41.104Z,13.88
2022-09-07T20:47:11.535Z,10.68
2022-09-07T20:52:12.195Z,12.40
2022-09-07T20:54:45.148Z,9.00
2022-09-07T20:57:15.489Z,10.38
2022-09-07T20:59:45.777Z,11.35
2022-09-07T21:02:16.142Z,11.57
2022-09-07T21:04:46.618Z,10.38
2022-09-07T21:07:16.944Z,8.85
2022-09-07T21:09:50.026Z,9.10
2022-09-07T21:12:20.350Z,9.52
2022-09-07T21:14:50.692Z,12.18
2022-09-07T21:17:21.287Z,9.57
2022-09-07T21:22:22.227Z,8.77
2022-09-07T21:24:55.137Z,10.50
2022-09-07T21:27:25.859Z,13.13
2022-09-07T21:29:56.191Z,8.55
2022-09-07T21:32:26.654Z,10.68
2022-09-07T21:37:27.195Z,8.20
2022-09-07T21:40:03.224Z,8.35
2022-09-07T21:42:33.666Z,9.13
2022-09-07T21:45:04.072Z,11.45
2022-09-07T21:47:34.378Z,10.63
2022-09-07T21:50:05.124Z,9.57
2022-09-07T21:52:35.628Z,7.22
2022-09-07T21:57:40.422Z,9.82
2022-09-07T22:00:12.651Z,8.23
2022-09-07T22:02:43.092Z,8.15
2022-09-07T22:05:13.380Z,11.82
2022-09-07T22:07:43.830Z,12.00
2022-09-07T22:10:16.815Z,7.63
2022-09-07T22:12:47.237Z,8.73
2022-09-07T22:15:17.972Z,10.70
2022-09-07T22:17:48.259Z,8.02
2022-09-07T22:20:18.776Z,8.80
2022-09-07T22:25:21.768Z,8.07
2022-09-07T22:27:52.190Z,9.00
2022-09-07T22:30:22.903Z,9.10
2022-09-07T22:32:54.743Z,6.00
2022-09-07T22:35:27.868Z,8.88
2022-09-07T22:37:59.697Z,8.95
2022-09-07T22:40:32.857Z,8.73
2022-09-07T22:43:03.159Z,6.75
2022-09-07T22:45:33.573Z,7.03
2022-09-07T22:50:35.815Z,8.03
2022-09-07T22:53:06.180Z,10.18
2022-09-07T22:55:41.553Z,10.38
2022-09-07T22:58:12.112Z,9.00
2022-09-07T23:00:44.746Z,8.82
2022-09-07T23:03:15.257Z,10.90
2022-09-07T23:08:16.201Z,10.53
2022-09-07T23:10:49.271Z,12.77
2022-09-07T23:13:19.780Z,8.60
2022-09-07T23:15:51.243Z,7.18
2022-09-07T23:18:24.494Z,9.48
2022-09-07T23:20:59.759Z,8.32
2022-09-07T23:23:31.797Z,9.45
2022-09-07T23:26:07.694Z,7.50
2022-09-07T23:28:38.354Z,10.70
2022-09-07T23:33:39.551Z,8.85
2022-09-07T23:36:10.966Z,8.43
2022-09-07T23:38:41.416Z,6.35
2022-09-07T23:41:15.311Z,7.38
2022-09-07T23:43:45.886Z,10.65
2022-09-07T23:51:23.481Z,9.15
2022-09-07T23:53:54.918Z,10.10
2022-09-07T23:56:28.165Z,7.03
2022-09-07T23:58:58.740Z,8.18
